Mexico, MO (65265)

5:00 AM CST on February 11, 2016 (GMT -0600)
APRSWXNET | | Change Station
CLOSE
Current Station
Personal Weather Station
Location: Mexico, MO
Elevation: 800 ft
Nearby Weather Stations

Elev 800 ft 39.17 °N, 91.87 °W | Updated 31 minutes ago

Overcast
Overcast
22 °F
Feels Like 17 °F
N
4
Wind Variable Wind from NE
Gusts 12.0 mph

Today
High -- | Low -- °F
--% Chance of Precip.
Yesterday
High -- | Low -- °F
Precip. -- in
Pressure 30.23 in
Visibility 10.0 miles
Clouds Mostly Cloudy 3800 ft
Windchill 17 °F
Dew Point 18 °F
Humidity 86%
Rainfall in
Snow Depth Not available.
7:04 AM 5:39 PM
Waxing Crescent, 11% visible
METAR KCOU 111054Z AUTO 05010KT 10SM BKN038 M06/M08 A3020 RMK AO2 SLP236 T10561078 TSNO
Pressure 30.23 in
Visibility 10.0 miles
Clouds Mostly Cloudy 3800 ft
Windchill 17 °F
Dew Point 18 °F
Humidity 86%
Rainfall in
Snow Depth Not available.
7:04 AM 5:39 PM
Waxing Crescent, 11% visible
METAR KCOU 111054Z AUTO 05010KT 10SM BKN038 M06/M08 A3020 RMK AO2 SLP236 T10561078 TSNO

10-Day Weather Forecast

Almanac

Astronomy

Feb. 11, 2016 Rise Set
Actual Time
Civil Twilight
Nautical Twilight
Astronomical Twilight
Moon
Length of Visible Light
Length of Day
Tomorrow will be .
, % of the Moon is Illuminated

Today's Extremes

State Highs State Lows

Community

WunderPhotos

Upload Photos

1,892,030 photos uploaded!

WunderBlog® & News

Nearby

Air Quality

  Air Quality AQ Index Pollutant
Not available.

Snow Depth

Station Depth Elevation

Earthquake Activity

City Distance Mag. Time & Date
Minimum magnitude displayed is 2.5.

Coastal Water Temperatures

Place Temperature

Stations

Nearby Weather Stations

Station Location Temp. Windchill Dew Point Humidity Wind Precip. Elev Updated Type
                   

Watches & Warnings

There are currently no watches in effect.